createdAt,value
2023-03-05T00:00:01.736Z,0.5
2023-03-05T00:01:00.395Z,0.4
2023-03-05T00:02:00.381Z,0.3
2023-03-05T00:04:00.528Z,0.2
2023-03-05T00:05:01.269Z,0.1
2023-03-05T00:10:01.188Z,0.2
2023-03-05T00:11:00.402Z,0.3
2023-03-05T00:13:00.438Z,0.4
2023-03-05T00:14:00.372Z,0.5
2023-03-05T00:15:01.224Z,0.5
2023-03-05T00:16:00.569Z,0.6
2023-03-05T00:17:00.377Z,0.7
2023-03-05T00:19:00.374Z,0.8
2023-03-05T00:20:03.128Z,0.9
2023-03-05T00:22:00.372Z,1.0
2023-03-05T00:30:01.281Z,1.0
2023-03-05T00:45:01.408Z,1.0
2023-03-05T01:00:04.254Z,0.9
2023-03-05T01:02:05.454Z,0.8
2023-03-05T01:05:01.754Z,0.7
2023-03-05T01:07:00.412Z,0.6
2023-03-05T01:10:00.588Z,0.5
2023-03-05T01:12:00.405Z,0.4
2023-03-05T01:15:01.406Z,0.5
2023-03-05T01:17:00.425Z,0.6
2023-03-05T01:20:01.580Z,0.7
2023-03-05T01:22:00.405Z,0.8
2023-03-05T01:25:00.719Z,0.9
2023-03-05T01:27:00.391Z,1.0
2023-03-05T01:30:01.879Z,1.0
2023-03-05T01:43:00.455Z,0.9
2023-03-05T01:45:01.136Z,0.8
2023-03-05T01:46:00.422Z,0.7
2023-03-05T01:48:00.390Z,0.6
2023-03-05T01:49:00.364Z,0.5
2023-03-05T01:51:00.376Z,0.4
2023-03-05T01:52:00.401Z,0.3
2023-03-05T01:54:00.535Z,0.2
2023-03-05T01:55:01.485Z,0.1
2023-03-05T05:08:00.734Z,0.1
2023-03-05T05:10:00.463Z,0.2
2023-03-05T05:11:00.443Z,0.3
2023-03-05T05:13:00.989Z,0.5
2023-03-05T05:14:00.456Z,0.6
2023-03-05T05:15:01.280Z,0.7
2023-03-05T05:16:00.518Z,0.9
2023-03-05T05:17:00.461Z,1.0
2023-03-05T05:18:00.679Z,1.2
2023-03-05T05:19:00.523Z,1.4
2023-03-05T05:20:00.457Z,1.6
2023-03-05T05:21:00.458Z,1.9
2023-03-05T05:22:00.467Z,2.3
2023-03-05T05:23:01.813Z,2.7
2023-03-05T05:24:00.482Z,3.2
2023-03-05T05:25:00.459Z,3.7
2023-03-05T05:26:00.451Z,4.5
2023-03-05T05:27:00.451Z,5.3
2023-03-05T05:28:00.663Z,6.5
2023-03-05T05:29:00.449Z,7.7
2023-03-05T05:30:01.339Z,8.9
2023-03-05T05:31:00.458Z,10.9
2023-03-05T05:32:00.479Z,13.0
2023-03-05T05:33:00.656Z,16.3
2023-03-05T05:34:00.450Z,19.7
2023-03-05T05:35:01.340Z,23.0
2023-03-05T05:36:00.467Z,28.3
2023-03-05T05:37:00.478Z,33.7
2023-03-05T05:38:00.658Z,42.1
2023-03-05T05:39:00.453Z,50.6
2023-03-05T05:40:01.068Z,59.1
2023-03-05T05:41:00.458Z,72.1
2023-03-05T05:42:00.484Z,85.1
2023-03-05T05:43:00.861Z,104.3
2023-03-05T05:44:00.459Z,123.6
2023-03-05T05:45:01.283Z,142.9
2023-03-05T05:46:00.618Z,170.5
2023-03-05T05:47:00.522Z,198.2
2023-03-05T05:48:00.934Z,236.9
2023-03-05T05:49:00.499Z,275.5
2023-03-05T05:50:01.099Z,314.2
2023-03-05T05:51:00.475Z,366.6
2023-03-05T05:52:00.542Z,419.0
2023-03-05T05:53:00.684Z,488.2
2023-03-05T05:54:00.476Z,557.4
2023-03-05T05:55:01.376Z,626.6
2023-03-05T05:56:00.516Z,715.7
2023-03-05T05:57:01.630Z,804.9
2023-03-05T05:58:00.920Z,917.5
2023-03-05T05:59:00.478Z,1030.2
2023-03-05T06:00:01.291Z,1142.9
2023-03-05T06:01:00.719Z,1281.1
2023-03-05T06:02:00.538Z,1419.3
2023-03-05T06:03:00.756Z,1584.1
2023-03-05T06:04:00.471Z,1749.0
2023-03-05T06:05:01.355Z,1913.9
2023-03-05T06:06:00.466Z,2108.4
2023-03-05T06:07:00.501Z,2302.9
2023-03-05T06:08:00.682Z,2532.7
2023-03-05T06:09:01.496Z,2762.5
2023-03-05T06:10:00.483Z,2992.3
2023-03-05T06:11:00.474Z,3260.1
2023-03-05T06:12:00.534Z,3527.9
2023-03-05T06:13:00.676Z,3827.7
2023-03-05T06:14:00.719Z,4127.5
2023-03-05T06:15:02.133Z,4427.3
2023-03-05T06:16:00.489Z,4755.2
2023-03-05T06:17:00.524Z,5083.1
2023-03-05T06:18:00.718Z,5426.5
2023-03-05T06:19:01.048Z,5770.0
2023-03-05T06:20:00.484Z,6113.5
2023-03-05T06:21:00.474Z,6456.8
2023-03-05T06:22:00.529Z,6800.1
2023-03-05T06:23:00.695Z,7133.1
2023-03-05T06:24:00.476Z,7466.0
2023-03-05T06:25:00.491Z,7798.9
2023-03-05T06:26:00.476Z,8145.7
2023-03-05T06:27:00.533Z,8492.5
2023-03-05T06:28:00.710Z,8872.3
2023-03-05T06:29:00.479Z,9252.0
2023-03-05T06:30:01.196Z,9631.7
2023-03-05T06:31:00.539Z,10025.0
2023-03-05T06:32:00.652Z,10418.3
2023-03-05T06:33:00.809Z,10857.3
2023-03-05T06:34:00.545Z,11296.3
2023-03-05T06:35:00.490Z,11735.3
2023-03-05T06:36:00.534Z,12206.6
2023-03-05T06:37:00.510Z,12677.9
2023-03-05T06:38:00.890Z,13198.6
2023-03-05T06:39:00.481Z,13719.3
2023-03-05T06:40:00.486Z,14239.9
2023-03-05T06:41:00.480Z,14748.1
2023-03-05T06:42:00.514Z,15256.3
2023-03-05T06:43:00.758Z,15747.5
2023-03-05T06:44:00.501Z,16238.6
2023-03-05T06:45:01.165Z,16729.7
2023-03-05T06:46:00.528Z,17265.3
2023-03-05T06:47:00.534Z,17800.9
2023-03-05T06:48:00.978Z,18436.5
2023-03-05T06:49:00.489Z,19072.1
2023-03-05T06:50:00.500Z,19707.7
2023-03-05T06:51:00.487Z,20500.6
2023-03-05T06:52:01.547Z,21293.5
2023-03-05T06:53:01.415Z,22143.3
2023-03-05T06:54:00.495Z,22993.1
2023-03-05T06:55:00.792Z,23842.9
2023-03-05T06:56:00.491Z,24717.0
2023-03-05T06:57:00.510Z,25591.1
2023-03-05T06:58:00.828Z,26592.5
2023-03-05T06:59:00.497Z,27593.8
2023-03-05T07:00:06.204Z,28595.1
2023-03-05T07:01:01.544Z,29686.1
2023-03-05T07:02:00.938Z,30777.1
2023-03-05T07:03:00.696Z,31862.7
2023-03-05T07:04:00.594Z,32948.2
2023-03-05T07:05:01.401Z,34033.7
2023-03-05T07:06:00.485Z,35082.9
2023-03-05T07:07:00.540Z,36132.0
2023-03-05T07:08:10.704Z,37104.1
2023-03-05T07:09:00.488Z,38076.1
2023-03-05T07:10:01.115Z,39048.2
2023-03-05T07:11:00.506Z,40157.6
2023-03-05T07:12:00.796Z,41267.0
2023-03-05T07:13:00.700Z,42457.6
2023-03-05T07:14:00.489Z,43648.2
2023-03-05T07:15:01.112Z,44838.8
2023-03-05T07:16:00.552Z,45702.1
2023-03-05T07:17:00.537Z,46565.3
2023-03-05T07:18:01.258Z,46647.4
2023-03-05T07:19:00.524Z,46729.5
2023-03-05T07:20:01.108Z,46811.5
2023-03-05T07:21:00.497Z,47074.9
2023-03-05T07:22:00.536Z,47338.3
2023-03-05T07:23:00.701Z,46946.3
2023-03-05T07:24:00.504Z,46554.3
2023-03-05T07:25:01.195Z,46162.3
2023-03-05T07:26:00.500Z,45406.1
2023-03-05T07:27:00.536Z,44649.8
2023-03-05T07:28:00.708Z,44309.7
2023-03-05T07:29:00.497Z,43969.7
2023-03-05T07:30:01.134Z,43629.6
2023-03-05T07:31:00.564Z,44152.5
2023-03-05T07:32:00.635Z,44675.3
2023-03-05T07:33:01.213Z,46035.5
2023-03-05T07:34:00.513Z,47395.6
2023-03-05T07:35:01.459Z,48755.7
2023-03-05T07:36:00.567Z,49952.1
2023-03-05T07:37:00.543Z,51148.4
2023-03-05T07:38:00.965Z,52925.9
2023-03-05T07:39:00.501Z,54703.5
2023-03-05T07:40:01.243Z,56481.0
2023-03-05T07:41:00.502Z,58396.9
2023-03-05T07:42:00.840Z,60312.9
2023-03-05T07:43:01.362Z,61526.1
2023-03-05T07:44:00.499Z,62739.3
2023-03-05T07:45:01.467Z,63952.5
2023-03-05T07:46:00.550Z,64419.5
2023-03-05T07:47:00.812Z,64886.6
2023-03-05T07:48:00.746Z,65102.7
2023-03-05T07:49:00.727Z,65318.9
2023-03-05T07:50:01.399Z,65535.0
2023-03-05T08:00:03.264Z,65535.0
2023-03-05T08:15:03.545Z,65535.0
2023-03-05T08:30:01.372Z,65535.0
2023-03-05T08:45:01.564Z,65535.0
2023-03-05T09:00:02.806Z,65535.0
2023-03-05T09:15:01.556Z,65535.0
2023-03-05T09:30:01.495Z,65535.0
2023-03-05T09:45:01.541Z,65535.0
2023-03-05T10:00:03.827Z,65535.0
2023-03-05T10:15:01.508Z,65535.0
2023-03-05T10:30:02.081Z,65535.0
2023-03-05T10:45:01.545Z,65535.0
2023-03-05T11:00:05.369Z,65535.0
2023-03-05T11:15:01.716Z,65535.0
2023-03-05T11:30:01.710Z,65535.0
2023-03-05T11:33:00.631Z,65134.3
2023-03-05T11:34:00.567Z,64733.5
2023-03-05T11:35:01.406Z,64332.8
2023-03-05T11:36:00.587Z,62932.6
2023-03-05T11:37:00.566Z,61532.4
2023-03-05T11:38:00.569Z,59515.3
2023-03-05T11:39:00.567Z,57498.1
2023-03-05T11:40:01.692Z,55481.0
2023-03-05T11:41:00.571Z,53797.9
2023-03-05T11:42:00.604Z,52114.7
2023-03-05T11:43:00.573Z,50442.3
2023-03-05T11:44:00.575Z,48769.9
2023-03-05T11:45:01.410Z,47097.5
2023-03-05T11:46:00.726Z,45369.5
2023-03-05T11:47:00.603Z,43641.5
2023-03-05T11:48:00.606Z,42755.4
2023-03-05T11:49:00.575Z,41869.3
2023-03-05T11:50:01.566Z,40983.1
2023-03-05T11:51:00.574Z,40970.4
2023-03-05T11:52:00.599Z,40957.7
2023-03-05T11:53:00.570Z,41902.8
2023-03-05T11:54:00.590Z,42847.9
2023-03-05T11:55:02.647Z,43793.1
2023-03-05T11:56:00.609Z,44472.2
2023-03-05T11:57:00.616Z,45151.3
2023-03-05T11:58:00.588Z,45372.6
2023-03-05T11:59:00.580Z,45593.9
2023-03-05T12:00:03.404Z,45815.1
2023-03-05T12:01:00.593Z,46816.2
2023-03-05T12:02:00.635Z,47817.3
2023-03-05T12:03:00.651Z,49104.1
2023-03-05T12:04:00.681Z,50391.0
2023-03-05T12:05:01.402Z,51677.9
2023-03-05T12:06:00.588Z,53090.8
2023-03-05T12:07:00.622Z,54503.7
2023-03-05T12:08:00.589Z,55575.7
2023-03-05T12:09:00.581Z,56647.7
2023-03-05T12:10:00.800Z,57719.7
2023-03-05T12:11:00.590Z,58723.7
2023-03-05T12:12:01.009Z,59727.7
2023-03-05T12:13:00.587Z,61178.9
2023-03-05T12:14:01.675Z,62630.0
2023-03-05T12:15:01.495Z,64081.1
2023-03-05T12:16:00.597Z,64808.1
2023-03-05T12:17:00.633Z,65535.0
2023-03-05T12:30:01.541Z,65535.0
2023-03-05T12:45:01.429Z,65535.0
2023-03-05T13:00:05.130Z,65535.0
2023-03-05T13:15:01.541Z,65535.0
2023-03-05T13:30:01.670Z,65535.0
2023-03-05T13:45:01.840Z,65535.0
2023-03-05T14:00:01.784Z,65535.0
2023-03-05T14:15:01.519Z,65535.0
2023-03-05T14:30:01.657Z,65535.0
2023-03-05T14:45:02.445Z,65535.0
2023-03-05T15:00:05.445Z,65535.0
2023-03-05T15:09:00.659Z,65244.8
2023-03-05T15:10:02.260Z,64954.6
2023-03-05T15:11:00.654Z,64514.9
2023-03-05T15:12:00.660Z,64075.3
2023-03-05T15:13:00.789Z,63635.6
2023-03-05T15:14:00.672Z,63212.7
2023-03-05T15:15:01.531Z,62789.9
2023-03-05T15:16:00.814Z,62355.7
2023-03-05T15:17:00.654Z,61921.6
2023-03-05T15:18:00.718Z,61487.5
2023-03-05T15:19:00.666Z,60921.3
2023-03-05T15:20:01.461Z,60355.2
2023-03-05T15:21:00.653Z,59800.3
2023-03-05T15:22:00.722Z,59245.3
2023-03-05T15:23:00.758Z,58690.4
2023-03-05T15:24:00.657Z,58614.8
2023-03-05T15:25:01.575Z,58539.2
2023-03-05T15:26:00.673Z,58433.3
2023-03-05T15:27:00.653Z,58327.5
2023-03-05T15:28:00.684Z,58221.6
2023-03-05T15:29:01.768Z,57682.1
2023-03-05T15:30:01.528Z,57142.5
2023-03-05T15:31:00.791Z,56278.7
2023-03-05T15:32:00.735Z,55414.9
2023-03-05T15:33:00.671Z,54551.1
2023-03-05T15:34:00.662Z,53565.0
2023-03-05T15:35:01.527Z,52578.9
2023-03-05T15:36:00.724Z,51574.7
2023-03-05T15:37:00.664Z,50570.6
2023-03-05T15:38:00.724Z,49566.5
2023-03-05T15:39:00.662Z,48247.3
2023-03-05T15:40:02.091Z,46928.2
2023-03-05T15:41:01.796Z,45664.7
2023-03-05T15:42:00.665Z,44401.1
2023-03-05T15:43:00.667Z,43137.6
2023-03-05T15:44:00.668Z,42057.3
2023-03-05T15:45:07.409Z,40977.1
2023-03-05T15:46:00.723Z,39891.3
2023-03-05T15:47:00.668Z,38805.5
2023-03-05T15:48:00.690Z,37719.7
2023-03-05T15:49:00.678Z,36675.7
2023-03-05T15:50:01.534Z,35631.8
2023-03-05T15:51:00.673Z,34538.5
2023-03-05T15:52:00.675Z,33445.1
2023-03-05T15:53:00.669Z,32351.8
2023-03-05T15:54:00.674Z,31255.3
2023-03-05T15:55:02.477Z,30158.7
2023-03-05T15:56:00.670Z,29044.4
2023-03-05T15:57:00.688Z,27930.1
2023-03-05T15:58:00.668Z,26815.7
2023-03-05T15:59:00.670Z,25823.7
2023-03-05T16:00:05.490Z,24831.6
2023-03-05T16:01:00.696Z,24184.7
2023-03-05T16:02:00.677Z,23537.7
2023-03-05T16:03:00.712Z,22890.8
2023-03-05T16:04:00.699Z,22553.2
2023-03-05T16:05:01.860Z,22215.6
2023-03-05T16:06:00.740Z,21884.3
2023-03-05T16:07:00.680Z,21552.9
2023-03-05T16:08:00.667Z,21221.6
2023-03-05T16:09:00.670Z,20813.7
2023-03-05T16:10:02.081Z,20405.9
2023-03-05T16:11:00.670Z,20096.9
2023-03-05T16:12:00.670Z,19788.0
2023-03-05T16:13:00.679Z,19479.1
2023-03-05T16:14:00.676Z,19252.9
2023-03-05T16:15:01.484Z,19026.7
2023-03-05T16:16:00.751Z,18706.1
2023-03-05T16:17:00.681Z,18385.5
2023-03-05T16:18:00.674Z,18064.9
2023-03-05T16:19:00.678Z,17601.6
2023-03-05T16:20:01.686Z,17138.3
2023-03-05T16:21:00.676Z,16714.6
2023-03-05T16:22:00.677Z,16290.9
2023-03-05T16:23:00.679Z,15867.1
2023-03-05T16:24:01.770Z,15617.8
2023-03-05T16:25:01.884Z,15368.5
2023-03-05T16:26:01.768Z,15110.4
2023-03-05T16:27:00.684Z,14852.3
2023-03-05T16:28:00.682Z,14594.3
2023-03-05T16:29:00.674Z,14306.2
2023-03-05T16:30:01.646Z,14018.1
2023-03-05T16:31:00.740Z,13772.4
2023-03-05T16:32:00.731Z,13526.7
2023-03-05T16:33:00.682Z,13280.9
2023-03-05T16:34:00.682Z,12960.1
2023-03-05T16:35:00.907Z,12639.3
2023-03-05T16:36:00.802Z,12193.9
2023-03-05T16:37:00.700Z,11748.5
2023-03-05T16:38:00.690Z,11303.1
2023-03-05T16:39:00.682Z,10786.5
2023-03-05T16:40:01.625Z,10269.9
2023-03-05T16:41:08.108Z,9737.3
2023-03-05T16:42:00.688Z,9204.6
2023-03-05T16:43:00.698Z,8671.9
2023-03-05T16:44:00.692Z,8154.3
2023-03-05T16:45:01.524Z,7636.7
2023-03-05T16:46:00.684Z,7129.9
2023-03-05T16:47:00.719Z,6623.0
2023-03-05T16:48:00.694Z,6116.1
2023-03-05T16:49:00.737Z,5695.4
2023-03-05T16:50:00.910Z,5274.7
2023-03-05T16:51:00.735Z,4956.5
2023-03-05T16:52:06.143Z,4638.4
2023-03-05T16:53:00.871Z,4320.3
2023-03-05T16:54:00.689Z,4082.9
2023-03-05T16:55:00.905Z,3845.5
2023-03-05T16:56:02.078Z,3656.6
2023-03-05T16:57:00.703Z,3467.7
2023-03-05T16:58:00.689Z,3278.9
2023-03-05T16:59:00.698Z,3113.9
2023-03-05T17:00:03.579Z,2949.0
2023-03-05T17:01:00.847Z,2801.6
2023-03-05T17:02:00.682Z,2654.2
2023-03-05T17:03:00.691Z,2506.8
2023-03-05T17:04:00.783Z,2374.1
2023-03-05T17:05:01.105Z,2241.3
2023-03-05T17:06:00.721Z,2123.3
2023-03-05T17:07:00.750Z,2005.3
2023-03-05T17:08:00.712Z,1887.3
2023-03-05T17:09:00.690Z,1774.8
2023-03-05T17:10:01.726Z,1662.3
2023-03-05T17:11:00.715Z,1555.1
2023-03-05T17:12:00.683Z,1447.9
2023-03-05T17:13:00.688Z,1340.7
2023-03-05T17:14:00.696Z,1241.1
2023-03-05T17:15:07.237Z,1141.6
2023-03-05T17:16:00.819Z,1051.5
2023-03-05T17:17:00.691Z,961.3
2023-03-05T17:18:00.687Z,871.2
2023-03-05T17:19:00.692Z,792.9
2023-03-05T17:20:01.519Z,714.7
2023-03-05T17:21:00.717Z,648.0
2023-03-05T17:22:00.686Z,581.3
2023-03-05T17:23:00.688Z,514.7
2023-03-05T17:24:00.741Z,459.9
2023-03-05T17:25:00.929Z,405.1
2023-03-05T17:26:01.261Z,361.3
2023-03-05T17:27:00.704Z,317.5
2023-03-05T17:28:00.690Z,273.7
2023-03-05T17:29:00.692Z,239.9
2023-03-05T17:30:01.963Z,206.1
2023-03-05T17:31:00.709Z,181.2
2023-03-05T17:32:00.886Z,156.3
2023-03-05T17:33:00.727Z,131.5
2023-03-05T17:34:00.698Z,113.8
2023-03-05T17:35:05.835Z,96.1
2023-03-05T17:36:00.705Z,83.9
2023-03-05T17:37:00.732Z,71.6
2023-03-05T17:38:00.698Z,59.3
2023-03-05T17:39:00.704Z,51.1
2023-03-05T17:40:01.183Z,42.8
2023-03-05T17:41:00.726Z,37.2
2023-03-05T17:42:00.723Z,31.6
2023-03-05T17:43:00.761Z,26.0
2023-03-05T17:44:00.781Z,22.1
2023-03-05T17:45:02.495Z,18.3
2023-03-05T17:46:00.849Z,15.7
2023-03-05T17:47:00.749Z,13.2
2023-03-05T17:48:00.708Z,10.7
2023-03-05T17:49:00.700Z,9.1
2023-03-05T17:50:00.944Z,7.5
2023-03-05T17:51:00.698Z,6.5
2023-03-05T17:52:00.816Z,5.5
2023-03-05T17:53:00.699Z,4.5
2023-03-05T17:54:00.704Z,3.8
2023-03-05T17:55:00.924Z,3.1
2023-03-05T17:56:00.784Z,2.7
2023-03-05T17:57:00.869Z,2.3
2023-03-05T17:58:00.700Z,1.9
2023-03-05T17:59:00.700Z,1.7
2023-03-05T18:00:03.932Z,1.4
2023-03-05T18:01:00.764Z,1.2
2023-03-05T18:02:00.762Z,1.0
2023-03-05T18:03:00.697Z,0.8
2023-03-05T18:04:00.790Z,0.7
2023-03-05T18:05:02.661Z,0.5
2023-03-05T18:07:00.723Z,0.4
2023-03-05T18:08:00.714Z,0.3
2023-03-05T18:10:00.925Z,0.2
2023-03-05T18:11:00.709Z,0.1
2023-03-05T20:16:00.902Z,0.1
2023-03-05T20:18:00.742Z,0.2
2023-03-05T20:30:02.532Z,0.2
2023-03-05T20:31:00.843Z,0.1
2023-03-05T20:41:01.178Z,0.2
2023-03-05T20:42:00.754Z,0.3
2023-03-05T20:44:00.836Z,0.4
2023-03-05T20:45:01.373Z,0.5
2023-03-05T20:47:01.651Z,0.6
2023-03-05T20:48:00.758Z,0.7
2023-03-05T20:54:02.111Z,0.6
2023-03-05T20:55:01.394Z,0.5
2023-03-05T20:57:05.784Z,0.4
2023-03-05T20:58:00.794Z,0.3
2023-03-05T21:00:03.429Z,0.2
2023-03-05T21:01:00.784Z,0.1
2023-03-05T21:06:00.766Z,0.2
2023-03-05T21:07:00.769Z,0.3
2023-03-05T21:11:02.126Z,0.4
2023-03-05T21:12:05.776Z,0.5
2023-03-05T21:15:01.561Z,0.5
2023-03-05T21:24:01.058Z,0.6
2023-03-05T21:25:00.807Z,0.7
2023-03-05T21:26:00.824Z,0.6
2023-03-05T21:27:00.789Z,0.5
2023-03-05T21:30:01.945Z,0.6
2023-03-05T21:31:00.793Z,0.7
2023-03-05T21:33:00.902Z,0.8
2023-03-05T21:41:06.904Z,0.9
2023-03-05T21:43:00.834Z,1.0
2023-03-05T21:45:01.404Z,1.0
2023-03-05T22:00:03.505Z,1.0
2023-03-05T22:15:02.703Z,1.0
2023-03-05T22:30:01.658Z,1.0
2023-03-05T22:45:02.632Z,1.0
2023-03-05T23:00:04.098Z,1.0
2023-03-05T23:15:01.773Z,1.0
2023-03-05T23:30:01.859Z,1.0
